createdAt,value
2022-09-29T00:00:25.555Z,6.26
2022-09-29T00:01:25.595Z,6.26
2022-09-29T00:02:25.542Z,6.25
2022-09-29T00:03:25.613Z,6.21
2022-09-29T00:04:26.069Z,6.16
2022-09-29T00:05:25.490Z,6.14
2022-09-29T00:06:25.520Z,6.11
2022-09-29T00:07:25.476Z,6.10
2022-09-29T00:08:25.480Z,6.09
2022-09-29T00:09:25.447Z,6.06
2022-09-29T00:10:25.446Z,6.01
2022-09-29T00:11:25.472Z,6.00
2022-09-29T00:12:25.475Z,6.00
2022-09-29T00:13:25.408Z,5.98
2022-09-29T00:14:25.446Z,5.95
2022-09-29T00:15:25.411Z,5.93
2022-09-29T00:16:25.422Z,5.91
2022-09-29T00:17:26.080Z,5.89
2022-09-29T00:18:25.426Z,5.86
2022-09-29T00:19:25.367Z,5.85
2022-09-29T00:20:25.347Z,5.82
2022-09-29T00:21:25.398Z,5.82
2022-09-29T00:22:25.351Z,5.77
2022-09-29T00:23:25.350Z,5.74
2022-09-29T00:24:25.319Z,5.73
2022-09-29T00:25:25.329Z,5.70
2022-09-29T00:26:25.353Z,5.66
2022-09-29T00:27:25.288Z,5.66
2022-09-29T00:28:25.269Z,5.63
2022-09-29T00:29:25.325Z,5.63
2022-09-29T00:30:25.264Z,5.60
2022-09-29T00:31:25.291Z,5.63
2022-09-29T00:32:25.240Z,5.59
2022-09-29T00:33:25.232Z,5.57
2022-09-29T00:34:25.235Z,5.55
2022-09-29T00:35:25.272Z,5.53
2022-09-29T00:36:25.230Z,5.53
2022-09-29T00:37:25.165Z,5.53
2022-09-29T00:38:25.233Z,5.53
2022-09-29T00:39:25.193Z,5.52
2022-09-29T00:40:25.202Z,5.50
2022-09-29T00:41:25.204Z,5.52
2022-09-29T00:42:25.120Z,5.48
2022-09-29T00:43:25.121Z,5.46
2022-09-29T00:44:25.124Z,5.45
2022-09-29T00:45:25.140Z,5.45
2022-09-29T00:46:25.090Z,5.43
2022-09-29T00:47:25.152Z,5.43
2022-09-29T00:48:25.088Z,5.43
2022-09-29T00:49:25.088Z,5.43
2022-09-29T00:50:25.074Z,5.40
2022-09-29T00:51:25.036Z,5.40
2022-09-29T00:52:25.071Z,5.40
2022-09-29T00:53:25.109Z,5.38
2022-09-29T00:54:25.088Z,5.37
2022-09-29T00:55:25.013Z,5.37
2022-09-29T00:56:25.005Z,5.32
2022-09-29T00:57:24.999Z,5.31
2022-09-29T00:58:25.007Z,5.30
2022-09-29T00:59:25.005Z,5.30
2022-09-29T01:00:25.081Z,5.28
2022-09-29T01:01:25.091Z,5.28
2022-09-29T01:02:25.042Z,5.28
2022-09-29T01:03:24.950Z,5.28
2022-09-29T01:04:24.954Z,5.25
2022-09-29T01:05:24.912Z,5.25
2022-09-29T01:06:24.921Z,5.27
2022-09-29T01:07:24.951Z,5.23
2022-09-29T01:08:24.929Z,5.27
2022-09-29T01:09:24.890Z,5.25
2022-09-29T01:10:24.870Z,5.23
2022-09-29T01:11:24.873Z,5.22
2022-09-29T01:12:24.880Z,5.20
2022-09-29T01:13:24.840Z,5.19
2022-09-29T01:14:24.874Z,5.19
2022-09-29T01:15:24.829Z,5.16
2022-09-29T01:16:24.839Z,5.13
2022-09-29T01:17:24.839Z,5.12
2022-09-29T01:18:24.763Z,5.12
2022-09-29T01:19:24.799Z,5.10
2022-09-29T01:20:25.388Z,5.09
2022-09-29T01:21:24.769Z,5.10
2022-09-29T01:22:24.772Z,5.07
2022-09-29T01:23:24.793Z,5.09
2022-09-29T01:24:24.739Z,5.07
2022-09-29T01:25:24.728Z,5.05
2022-09-29T01:26:24.723Z,5.02
2022-09-29T01:27:24.727Z,5.04
2022-09-29T01:28:24.733Z,5.02
2022-09-29T01:29:24.730Z,5.01
2022-09-29T01:30:24.680Z,5.01
2022-09-29T01:31:24.742Z,4.98
2022-09-29T01:32:24.709Z,4.96
2022-09-29T01:33:24.649Z,4.96
2022-09-29T01:34:24.676Z,4.96
2022-09-29T01:35:24.921Z,4.95
2022-09-29T01:36:24.632Z,4.92
2022-09-29T01:37:24.668Z,4.92
2022-09-29T01:38:24.640Z,4.91
2022-09-29T01:39:24.601Z,4.89
2022-09-29T01:40:24.652Z,4.89
2022-09-29T01:41:24.590Z,4.86
2022-09-29T01:42:24.554Z,4.79
2022-09-29T01:43:24.570Z,4.77
2022-09-29T01:44:24.520Z,4.76
2022-09-29T01:45:24.538Z,4.77
2022-09-29T01:46:24.507Z,4.76
2022-09-29T01:47:24.594Z,4.76
2022-09-29T01:48:24.515Z,4.75
2022-09-29T01:49:24.469Z,4.77
2022-09-29T01:50:24.481Z,4.79
2022-09-29T01:51:24.469Z,4.79
2022-09-29T01:52:24.479Z,4.80
2022-09-29T01:53:24.445Z,4.80
2022-09-29T01:54:24.437Z,4.79
2022-09-29T01:55:24.464Z,4.79
2022-09-29T01:56:24.357Z,4.77
2022-09-29T01:57:24.403Z,4.77
2022-09-29T01:58:24.400Z,4.76
2022-09-29T01:59:24.395Z,4.73
2022-09-29T02:00:24.394Z,4.73
2022-09-29T02:01:24.354Z,4.72
2022-09-29T02:02:24.401Z,4.70
2022-09-29T02:03:24.368Z,4.69
2022-09-29T02:04:24.322Z,4.70
2022-09-29T02:05:24.353Z,4.65
2022-09-29T02:06:24.374Z,4.67
2022-09-29T02:07:24.322Z,4.67
2022-09-29T02:08:24.308Z,4.67
2022-09-29T02:09:24.352Z,4.67
2022-09-29T02:10:24.277Z,4.69
2022-09-29T02:11:24.316Z,4.70
2022-09-29T02:12:24.281Z,4.67
2022-09-29T02:13:24.269Z,4.67
2022-09-29T02:14:24.275Z,4.65
2022-09-29T02:15:24.231Z,4.65
2022-09-29T02:16:24.322Z,4.65
2022-09-29T02:17:24.237Z,4.65
2022-09-29T02:18:24.196Z,4.64
2022-09-29T02:19:24.192Z,4.62
2022-09-29T02:20:24.193Z,4.61
2022-09-29T02:21:24.195Z,4.58
2022-09-29T02:22:24.159Z,4.57
2022-09-29T02:23:24.195Z,4.55
2022-09-29T02:24:24.130Z,4.55
2022-09-29T02:25:24.124Z,4.54
2022-09-29T02:26:24.913Z,4.51
2022-09-29T02:27:24.118Z,4.50
2022-09-29T02:28:24.126Z,4.50
2022-09-29T02:29:24.160Z,4.51
2022-09-29T02:30:24.110Z,4.50
2022-09-29T02:31:24.116Z,4.50
2022-09-29T02:32:24.084Z,4.51
2022-09-29T02:33:24.104Z,4.47
2022-09-29T02:34:24.042Z,4.47
2022-09-29T02:35:24.071Z,4.50
2022-09-29T02:36:24.028Z,4.50
2022-09-29T02:37:24.031Z,4.51
2022-09-29T02:38:24.001Z,4.50
2022-09-29T02:39:24.002Z,4.50
2022-09-29T02:40:24.011Z,4.51
2022-09-29T02:41:24.033Z,4.51
2022-09-29T02:42:23.965Z,4.50
2022-09-29T02:43:23.963Z,4.50
2022-09-29T02:44:23.966Z,4.51
2022-09-29T02:45:24.154Z,4.51
2022-09-29T02:46:23.924Z,4.51
2022-09-29T02:47:23.949Z,4.51
2022-09-29T02:48:23.946Z,4.51
2022-09-29T02:49:23.912Z,4.50
2022-09-29T02:50:23.879Z,4.47
2022-09-29T02:51:23.868Z,4.47
2022-09-29T02:52:23.868Z,4.46
2022-09-29T02:53:23.885Z,4.43
2022-09-29T02:54:23.840Z,4.42
2022-09-29T02:55:23.848Z,4.40
2022-09-29T02:56:23.864Z,4.39
2022-09-29T02:57:23.827Z,4.37
2022-09-29T02:58:23.794Z,4.36
2022-09-29T02:59:23.881Z,4.37
2022-09-29T03:00:23.764Z,4.34
2022-09-29T03:01:23.847Z,4.33
2022-09-29T03:02:23.762Z,4.33
2022-09-29T03:03:23.799Z,4.33
2022-09-29T03:04:23.768Z,4.29
2022-09-29T03:05:23.793Z,4.29
2022-09-29T03:06:23.747Z,4.29
2022-09-29T03:07:23.714Z,4.28
2022-09-29T03:08:23.710Z,4.28
2022-09-29T03:09:23.720Z,4.26
2022-09-29T03:10:27.978Z,4.25
2022-09-29T03:11:23.686Z,4.25
2022-09-29T03:12:23.668Z,4.25
2022-09-29T03:13:23.682Z,4.25
2022-09-29T03:14:23.642Z,4.24
2022-09-29T03:15:23.631Z,4.24
2022-09-29T03:16:23.712Z,4.22
2022-09-29T03:17:23.645Z,4.21
2022-09-29T03:18:23.600Z,4.19
2022-09-29T03:19:23.647Z,4.16
2022-09-29T03:20:23.590Z,4.18
2022-09-29T03:21:23.607Z,4.18
2022-09-29T03:22:23.565Z,4.19
2022-09-29T03:23:23.753Z,4.18
2022-09-29T03:24:23.524Z,4.16
2022-09-29T03:25:23.705Z,4.18
2022-09-29T03:26:23.691Z,4.19
2022-09-29T03:27:23.547Z,4.19
2022-09-29T03:28:23.685Z,4.18
2022-09-29T03:29:23.744Z,4.18
2022-09-29T03:30:23.485Z,4.15
2022-09-29T03:31:23.555Z,4.15
2022-09-29T03:32:24.345Z,4.14
2022-09-29T03:33:23.486Z,4.12
2022-09-29T03:34:23.484Z,4.14
2022-09-29T03:35:23.687Z,4.14
2022-09-29T03:36:23.484Z,4.14
2022-09-29T03:37:23.514Z,4.15
2022-09-29T03:38:23.395Z,4.14
2022-09-29T03:39:23.416Z,4.16
2022-09-29T03:40:23.530Z,4.15
2022-09-29T03:41:23.797Z,4.14
2022-09-29T03:42:23.767Z,4.15
2022-09-29T03:43:23.491Z,4.14
2022-09-29T03:44:23.380Z,4.10
2022-09-29T03:45:23.429Z,4.08
2022-09-29T03:46:23.316Z,4.08
2022-09-29T03:47:23.324Z,4.06
2022-09-29T03:48:24.856Z,4.04
2022-09-29T03:49:23.419Z,4.03
2022-09-29T03:50:23.244Z,4.01
2022-09-29T03:51:23.345Z,3.98
2022-09-29T03:52:23.265Z,3.98
2022-09-29T03:53:23.354Z,3.97
2022-09-29T03:54:23.504Z,3.98
2022-09-29T03:55:23.277Z,3.97
2022-09-29T03:56:23.306Z,3.98
2022-09-29T03:57:23.304Z,3.97
2022-09-29T03:58:23.388Z,3.97
2022-09-29T03:59:23.468Z,3.97
2022-09-29T04:00:23.201Z,3.97
2022-09-29T04:01:23.182Z,3.94
2022-09-29T04:02:23.679Z,3.96
2022-09-29T04:03:23.292Z,3.94
2022-09-29T04:04:23.519Z,3.94
2022-09-29T04:05:23.172Z,3.90
2022-09-29T04:06:23.097Z,3.90
2022-09-29T04:07:23.211Z,3.92
2022-09-29T04:08:23.312Z,3.94
2022-09-29T04:09:23.312Z,3.92
2022-09-29T04:10:23.222Z,3.94
2022-09-29T04:11:23.119Z,3.94
2022-09-29T04:12:23.268Z,3.96
2022-09-29T04:13:23.251Z,3.94
2022-09-29T04:14:23.245Z,3.94
2022-09-29T04:15:23.281Z,3.94
2022-09-29T04:16:23.348Z,3.96
2022-09-29T04:17:23.049Z,3.96
2022-09-29T04:18:23.187Z,3.96
2022-09-29T04:19:23.092Z,3.94
2022-09-29T04:20:23.171Z,3.94
2022-09-29T04:21:23.036Z,3.96
2022-09-29T04:22:23.351Z,3.97
2022-09-29T04:23:23.115Z,3.98
2022-09-29T04:24:23.102Z,3.98
2022-09-29T04:25:23.253Z,3.98
2022-09-29T04:26:23.027Z,3.97
2022-09-29T04:27:23.080Z,3.98
2022-09-29T04:28:23.118Z,3.97
2022-09-29T04:29:22.954Z,3.98
2022-09-29T04:30:22.873Z,3.98
2022-09-29T04:31:22.955Z,3.97
2022-09-29T04:32:22.877Z,3.97
2022-09-29T04:33:23.024Z,4.00
2022-09-29T04:34:23.000Z,3.97
2022-09-29T04:35:23.844Z,3.94
2022-09-29T04:36:22.976Z,3.94
2022-09-29T04:37:22.973Z,3.90
2022-09-29T04:38:22.818Z,3.88
2022-09-29T04:39:22.795Z,3.86
2022-09-29T04:40:23.025Z,3.85
2022-09-29T04:41:23.054Z,3.85
2022-09-29T04:42:22.821Z,3.82
2022-09-29T04:43:22.917Z,3.80
2022-09-29T04:44:22.938Z,3.80
2022-09-29T04:45:22.965Z,3.79
2022-09-29T04:46:22.980Z,3.78
2022-09-29T04:47:23.371Z,3.78
2022-09-29T04:48:22.807Z,3.80
2022-09-29T04:49:23.380Z,3.79
2022-09-29T04:50:22.901Z,3.79
2022-09-29T04:51:22.901Z,3.79
2022-09-29T04:52:22.799Z,3.79
2022-09-29T04:53:22.803Z,3.76
2022-09-29T04:54:23.002Z,3.78
2022-09-29T04:55:22.648Z,3.76
2022-09-29T04:56:22.651Z,3.79
2022-09-29T04:57:22.904Z,3.78
2022-09-29T04:58:22.679Z,3.79
2022-09-29T04:59:22.732Z,3.79
2022-09-29T05:00:22.641Z,3.79
2022-09-29T05:01:22.796Z,3.79
2022-09-29T05:02:22.873Z,3.79
2022-09-29T05:03:22.626Z,3.78
2022-09-29T05:04:22.710Z,3.78
2022-09-29T05:05:22.665Z,3.78
2022-09-29T05:06:22.546Z,3.75
2022-09-29T05:07:22.556Z,3.75
2022-09-29T05:08:22.697Z,3.78
2022-09-29T05:09:24.801Z,3.76
2022-09-29T05:10:22.538Z,3.75
2022-09-29T05:11:22.638Z,3.75
2022-09-29T05:12:22.487Z,3.75
2022-09-29T05:13:22.512Z,3.76
2022-09-29T05:14:22.459Z,3.76
2022-09-29T05:15:26.005Z,3.72
2022-09-29T05:16:22.508Z,3.75
2022-09-29T05:17:22.665Z,3.76
2022-09-29T05:18:22.472Z,3.76
2022-09-29T05:19:22.386Z,3.76
2022-09-29T05:20:22.389Z,3.75
2022-09-29T05:21:28.180Z,3.78
2022-09-29T05:22:22.365Z,3.79
2022-09-29T05:23:22.406Z,3.79
2022-09-29T05:24:22.356Z,3.79
2022-09-29T05:25:22.317Z,3.82
2022-09-29T05:26:22.329Z,3.85
2022-09-29T05:27:22.346Z,3.85
2022-09-29T05:28:22.312Z,3.88
2022-09-29T05:29:22.405Z,3.88
2022-09-29T05:30:22.313Z,3.92
2022-09-29T05:31:22.396Z,3.96
2022-09-29T05:32:22.325Z,3.98
2022-09-29T05:33:22.270Z,3.98
2022-09-29T05:34:22.298Z,4.01
2022-09-29T05:35:22.331Z,4.04
2022-09-29T05:36:22.271Z,4.04
2022-09-29T05:37:22.285Z,4.04
2022-09-29T05:38:22.327Z,4.07
2022-09-29T05:39:22.224Z,4.10
2022-09-29T05:40:22.421Z,4.12
2022-09-29T05:41:22.426Z,4.12
2022-09-29T05:42:22.284Z,4.14
2022-09-29T05:43:22.173Z,4.15
2022-09-29T05:44:22.331Z,4.16
2022-09-29T05:45:22.258Z,4.16
2022-09-29T05:46:22.231Z,4.18
2022-09-29T05:47:22.264Z,4.21
2022-09-29T05:48:22.498Z,4.21
2022-09-29T05:49:22.156Z,4.21
2022-09-29T05:50:22.219Z,4.22
2022-09-29T05:51:23.284Z,4.21
2022-09-29T05:52:22.453Z,4.22
2022-09-29T05:53:23.074Z,4.24
2022-09-29T05:54:22.080Z,4.22
2022-09-29T05:55:22.093Z,4.24
2022-09-29T05:56:22.260Z,4.24
2022-09-29T05:57:22.283Z,4.25
2022-09-29T05:58:22.103Z,4.26
2022-09-29T05:59:22.187Z,4.26
2022-09-29T06:00:22.105Z,4.26
2022-09-29T06:01:22.155Z,4.26
2022-09-29T06:02:22.103Z,4.32
2022-09-29T06:03:22.122Z,4.32
2022-09-29T06:04:22.024Z,4.33
2022-09-29T06:05:22.010Z,4.34
2022-09-29T06:06:22.202Z,4.36
2022-09-29T06:07:22.082Z,4.36
2022-09-29T06:08:21.938Z,4.39
2022-09-29T06:09:21.994Z,4.40
2022-09-29T06:10:21.934Z,4.40
2022-09-29T06:11:22.111Z,4.42
2022-09-29T06:12:22.127Z,4.42
2022-09-29T06:13:22.003Z,4.40
2022-09-29T06:14:22.132Z,4.40
2022-09-29T06:15:22.236Z,4.39
2022-09-29T06:16:22.052Z,4.40
2022-09-29T06:17:21.938Z,4.43
2022-09-29T06:18:21.885Z,4.43
2022-09-29T06:19:22.091Z,4.44
2022-09-29T06:20:21.891Z,4.46
2022-09-29T06:21:21.850Z,4.47
2022-09-29T06:22:21.905Z,4.51
2022-09-29T06:23:21.888Z,4.52
2022-09-29T06:24:22.007Z,4.54
2022-09-29T06:25:22.014Z,4.55
2022-09-29T06:26:24.221Z,4.55
2022-09-29T06:27:21.824Z,4.57
2022-09-29T06:28:22.008Z,4.58
2022-09-29T06:29:21.912Z,4.58
2022-09-29T06:30:21.755Z,4.59
2022-09-29T06:31:22.038Z,4.61
2022-09-29T06:32:21.942Z,4.64
2022-09-29T06:33:21.727Z,4.67
2022-09-29T06:34:21.897Z,4.67
2022-09-29T06:35:21.735Z,4.72
2022-09-29T06:36:21.717Z,4.70
2022-09-29T06:37:22.012Z,4.73
2022-09-29T06:38:21.641Z,4.75
2022-09-29T06:39:22.226Z,4.76
2022-09-29T06:40:21.880Z,4.77
2022-09-29T06:41:21.736Z,4.83
2022-09-29T06:42:21.738Z,4.84
2022-09-29T06:43:22.276Z,4.89
2022-09-29T06:44:21.587Z,4.92
2022-09-29T06:45:22.405Z,4.92
2022-09-29T06:46:21.638Z,5.01
2022-09-29T06:47:21.605Z,5.02
2022-09-29T06:48:21.553Z,5.10
2022-09-29T06:49:21.709Z,5.14
2022-09-29T06:50:21.562Z,5.17
2022-09-29T06:51:21.514Z,5.19
2022-09-29T06:52:22.039Z,5.23
2022-09-29T06:53:31.593Z,5.28
2022-09-29T06:54:21.517Z,5.28
2022-09-29T06:55:21.475Z,5.34
2022-09-29T06:56:21.502Z,5.40
2022-09-29T06:57:21.504Z,5.46
2022-09-29T06:58:21.482Z,5.52
2022-09-29T06:59:21.742Z,5.60
2022-09-29T07:00:21.464Z,5.70
2022-09-29T07:01:21.470Z,5.77
2022-09-29T07:02:21.526Z,5.86
2022-09-29T07:03:21.426Z,5.96
2022-09-29T07:04:21.699Z,6.09
2022-09-29T07:05:21.435Z,6.18
2022-09-29T07:06:21.363Z,6.28
2022-09-29T07:07:21.390Z,6.33
2022-09-29T07:08:21.380Z,6.44
2022-09-29T07:09:21.467Z,6.50
2022-09-29T07:10:21.388Z,6.61
2022-09-29T07:11:21.349Z,6.66
2022-09-29T07:12:21.354Z,6.76
2022-09-29T07:13:21.346Z,6.84
2022-09-29T07:14:21.477Z,6.91
2022-09-29T07:15:21.306Z,7.02
2022-09-29T07:16:21.323Z,7.12
2022-09-29T07:17:21.280Z,7.23
2022-09-29T07:18:21.282Z,7.31
2022-09-29T07:19:21.449Z,7.40
2022-09-29T07:20:21.305Z,7.45
2022-09-29T07:21:21.225Z,7.50
2022-09-29T07:22:21.258Z,7.53
2022-09-29T07:23:21.301Z,7.59
2022-09-29T07:24:21.199Z,7.63
2022-09-29T07:25:46.937Z,7.72
2022-09-29T07:26:21.207Z,7.79
2022-09-29T07:27:21.158Z,7.87
2022-09-29T07:28:21.203Z,7.94
2022-09-29T07:29:21.194Z,8.02
2022-09-29T07:30:27.971Z,8.04
2022-09-29T07:31:21.212Z,8.12
2022-09-29T07:32:27.668Z,8.18
2022-09-29T07:33:33.800Z,8.25
2022-09-29T07:34:21.236Z,8.30
2022-09-29T07:35:21.161Z,8.36
2022-09-29T07:36:21.076Z,8.40
2022-09-29T07:37:21.310Z,8.44
2022-09-29T07:38:21.147Z,8.48
2022-09-29T07:39:21.410Z,8.51
2022-09-29T07:40:21.153Z,8.54
2022-09-29T07:41:21.139Z,8.57
2022-09-29T07:42:21.230Z,8.60
2022-09-29T07:43:21.031Z,8.62
2022-09-29T07:44:21.216Z,8.65
2022-09-29T07:45:21.139Z,8.68
2022-09-29T07:46:21.214Z,8.71
2022-09-29T07:47:21.075Z,8.75
2022-09-29T07:48:20.999Z,8.76
2022-09-29T07:49:21.362Z,8.78
2022-09-29T07:50:20.983Z,8.81
2022-09-29T07:51:21.238Z,8.81
2022-09-29T07:52:21.021Z,8.83
2022-09-29T07:53:21.033Z,8.87
2022-09-29T07:54:24.488Z,8.91
2022-09-29T07:55:22.380Z,8.94
2022-09-29T07:56:20.976Z,9.05
2022-09-29T07:57:21.016Z,9.12
2022-09-29T07:58:21.180Z,9.21
2022-09-29T07:59:20.956Z,9.28
2022-09-29T08:00:21.012Z,9.31
2022-09-29T08:01:21.241Z,9.27
2022-09-29T08:02:21.258Z,9.25
2022-09-29T08:03:21.057Z,9.25
2022-09-29T08:04:21.101Z,9.30
2022-09-29T08:05:20.998Z,9.40
2022-09-29T08:06:20.803Z,9.45
2022-09-29T08:07:20.793Z,9.48
2022-09-29T08:08:20.807Z,9.53
2022-09-29T08:09:23.945Z,9.57
2022-09-29T08:10:20.943Z,9.61
2022-09-29T08:11:30.055Z,9.66
2022-09-29T08:12:20.790Z,9.68
2022-09-29T08:13:20.739Z,9.73
2022-09-29T08:14:20.981Z,9.76
2022-09-29T08:15:20.710Z,9.82
2022-09-29T08:16:20.958Z,9.89
2022-09-29T08:17:20.913Z,9.97
2022-09-29T08:18:20.613Z,9.97
2022-09-29T08:19:20.734Z,9.97
2022-09-29T08:20:20.649Z,10.01
2022-09-29T08:21:20.738Z,10.07
2022-09-29T08:22:20.663Z,10.14
2022-09-29T08:23:20.786Z,10.17
2022-09-29T08:24:20.839Z,10.21
2022-09-29T08:25:20.665Z,10.24
2022-09-29T08:26:33.252Z,10.33
2022-09-29T08:27:20.673Z,10.36
2022-09-29T08:28:29.952Z,10.30
2022-09-29T08:29:20.725Z,10.28
2022-09-29T08:30:20.629Z,10.26
2022-09-29T08:31:20.638Z,10.19
2022-09-29T08:32:20.659Z,10.15
2022-09-29T08:33:20.627Z,10.15
2022-09-29T08:34:20.750Z,10.18
2022-09-29T08:35:20.784Z,10.22
2022-09-29T08:36:20.708Z,10.21
2022-09-29T08:37:20.671Z,10.24
2022-09-29T08:38:20.591Z,10.28
2022-09-29T08:39:20.501Z,10.30
2022-09-29T08:40:20.691Z,10.36
2022-09-29T08:41:20.524Z,10.42
2022-09-29T08:42:20.483Z,10.53
2022-09-29T08:43:32.293Z,10.63
2022-09-29T08:44:36.143Z,10.71
2022-09-29T08:45:20.475Z,10.78
2022-09-29T08:46:29.830Z,10.81
2022-09-29T08:47:20.536Z,10.84
2022-09-29T08:48:23.442Z,10.84
2022-09-29T08:49:30.806Z,10.88
2022-09-29T08:50:20.639Z,10.92
2022-09-29T08:51:20.904Z,10.99
2022-09-29T08:52:20.428Z,11.06
2022-09-29T08:53:27.988Z,11.09
2022-09-29T08:54:31.486Z,11.13
2022-09-29T08:55:22.183Z,11.14
2022-09-29T08:56:20.352Z,11.20
2022-09-29T08:57:20.483Z,11.25
2022-09-29T08:58:20.318Z,11.25
2022-09-29T08:59:21.002Z,11.27
2022-09-29T09:00:20.302Z,11.29
2022-09-29T09:01:20.474Z,11.31
2022-09-29T09:02:20.339Z,11.28
2022-09-29T09:03:20.343Z,11.21
2022-09-29T09:04:20.405Z,11.17
2022-09-29T09:05:20.343Z,11.24
2022-09-29T09:06:20.299Z,11.24
2022-09-29T09:07:20.194Z,11.21
2022-09-29T09:08:20.272Z,11.27
2022-09-29T09:09:20.329Z,11.34
2022-09-29T09:10:20.195Z,11.36
2022-09-29T09:11:20.184Z,11.36
2022-09-29T09:12:20.182Z,11.32
2022-09-29T09:13:20.205Z,11.24
2022-09-29T09:14:20.184Z,11.16
2022-09-29T09:15:20.200Z,11.10
2022-09-29T09:16:20.268Z,11.17
2022-09-29T09:17:20.185Z,11.31
2022-09-29T09:18:20.242Z,11.52
2022-09-29T09:19:20.228Z,11.62
2022-09-29T09:20:20.139Z,11.68
2022-09-29T09:21:21.807Z,11.71
2022-09-29T09:22:20.144Z,11.74
2022-09-29T09:23:20.139Z,11.74
2022-09-29T09:24:20.331Z,11.38
2022-09-29T09:25:20.062Z,11.36
2022-09-29T09:26:20.110Z,11.44
2022-09-29T09:27:20.104Z,11.49
2022-09-29T09:28:20.071Z,11.54
2022-09-29T09:29:20.143Z,11.67
2022-09-29T09:30:19.991Z,11.78
2022-09-29T09:31:20.094Z,12.02
2022-09-29T09:32:20.076Z,12.33
2022-09-29T09:33:28.382Z,12.34
2022-09-29T09:34:22.697Z,12.26
2022-09-29T09:35:23.795Z,12.20
2022-09-29T09:36:30.683Z,12.04
2022-09-29T09:37:20.063Z,12.01
2022-09-29T09:38:20.023Z,11.99
2022-09-29T09:39:19.924Z,12.06
2022-09-29T09:40:19.907Z,12.15
2022-09-29T09:41:19.981Z,12.26
2022-09-29T09:42:19.880Z,12.33
2022-09-29T09:43:19.923Z,12.49
2022-09-29T09:44:20.056Z,12.78
2022-09-29T09:45:19.879Z,12.81
2022-09-29T09:46:19.909Z,12.82
2022-09-29T09:47:19.899Z,12.84
2022-09-29T09:48:23.437Z,13.14
2022-09-29T09:49:19.983Z,13.47
2022-09-29T09:50:19.800Z,13.59
2022-09-29T09:51:19.831Z,13.73
2022-09-29T09:52:19.864Z,13.71
2022-09-29T09:53:19.909Z,13.65
2022-09-29T09:54:19.865Z,13.62
2022-09-29T09:55:19.798Z,13.41
2022-09-29T09:56:19.775Z,13.36
2022-09-29T09:57:19.753Z,13.33
2022-09-29T09:58:19.744Z,13.43
2022-09-29T09:59:19.882Z,13.55
2022-09-29T10:00:19.703Z,13.92
2022-09-29T10:01:19.833Z,14.21
2022-09-29T10:02:19.820Z,14.65
2022-09-29T10:03:19.685Z,15.08
2022-09-29T10:04:19.673Z,15.33
2022-09-29T10:05:19.758Z,15.70
2022-09-29T10:06:19.723Z,16.00
2022-09-29T10:07:19.668Z,16.18
2022-09-29T10:08:19.666Z,16.23
2022-09-29T10:09:19.859Z,16.31
2022-09-29T10:10:19.604Z,16.53
2022-09-29T10:11:19.611Z,16.52
2022-09-29T10:12:19.712Z,16.63
2022-09-29T10:13:19.621Z,16.81
2022-09-29T10:14:19.584Z,16.85
2022-09-29T10:15:19.722Z,16.74
2022-09-29T10:16:19.751Z,16.78
2022-09-29T10:17:19.580Z,16.95
2022-09-29T10:18:19.485Z,17.20
2022-09-29T10:19:19.793Z,17.38
2022-09-29T10:20:19.458Z,17.70
2022-09-29T10:21:19.507Z,17.88
2022-09-29T10:23:19.650Z,17.97
2022-09-29T10:24:19.500Z,18.00
2022-09-29T10:25:19.447Z,17.95
2022-09-29T10:26:19.541Z,17.99
2022-09-29T10:27:19.409Z,17.87
2022-09-29T10:28:19.590Z,18.04
2022-09-29T10:29:19.738Z,18.00
2022-09-29T10:30:19.508Z,17.70
2022-09-29T10:31:19.420Z,17.11
2022-09-29T10:32:19.620Z,16.71
2022-09-29T10:33:19.364Z,16.44
2022-09-29T10:34:19.375Z,16.52
2022-09-29T10:35:19.383Z,16.85
2022-09-29T10:36:19.398Z,17.30
2022-09-29T10:37:19.392Z,17.84
2022-09-29T10:38:19.524Z,18.28
2022-09-29T10:39:19.648Z,18.62
2022-09-29T10:40:19.359Z,18.94
2022-09-29T10:41:19.356Z,18.97
2022-09-29T10:42:19.358Z,19.14
2022-09-29T10:43:19.335Z,19.28
2022-09-29T10:44:19.616Z,19.14
2022-09-29T10:45:19.382Z,18.77
2022-09-29T10:46:19.352Z,18.47
2022-09-29T10:47:19.285Z,17.84
2022-09-29T10:48:19.214Z,17.28
2022-09-29T10:49:19.265Z,16.81
2022-09-29T10:50:19.209Z,16.52
2022-09-29T10:51:19.235Z,16.63
2022-09-29T10:52:19.151Z,16.75
2022-09-29T10:53:19.535Z,17.13
2022-09-29T10:54:19.179Z,17.62
2022-09-29T10:55:19.173Z,17.94
2022-09-29T10:56:19.112Z,18.24
2022-09-29T10:57:19.135Z,18.52
2022-09-29T10:58:37.467Z,18.82
2022-09-29T10:59:19.225Z,19.05
2022-09-29T11:00:19.279Z,19.28
2022-09-29T11:01:19.135Z,19.48
2022-09-29T11:02:19.121Z,19.65
2022-09-29T11:03:19.071Z,19.78
2022-09-29T11:04:19.088Z,19.87
2022-09-29T11:05:19.444Z,19.88
2022-09-29T11:06:19.254Z,19.66
2022-09-29T11:07:19.249Z,19.47
2022-09-29T11:08:19.321Z,19.02
2022-09-29T11:09:19.506Z,18.54
2022-09-29T11:10:18.987Z,18.13
2022-09-29T11:11:19.364Z,18.10
2022-09-29T11:12:18.978Z,18.09
2022-09-29T11:13:18.978Z,18.28
2022-09-29T11:14:19.214Z,18.62
2022-09-29T11:15:19.004Z,18.98
2022-09-29T11:16:19.040Z,19.38
2022-09-29T11:17:18.957Z,19.75
2022-09-29T11:18:18.921Z,20.12
2022-09-29T11:19:19.207Z,20.39
2022-09-29T11:20:18.897Z,20.53
2022-09-29T11:21:18.921Z,20.69
2022-09-29T11:22:18.917Z,20.62
2022-09-29T11:23:19.228Z,20.61
2022-09-29T11:24:19.046Z,20.58
2022-09-29T11:25:18.884Z,20.23
2022-09-29T11:26:19.155Z,19.95
2022-09-29T11:27:18.887Z,19.84
2022-09-29T11:28:18.861Z,19.50
2022-09-29T11:29:18.900Z,19.18
2022-09-29T11:30:18.979Z,18.99
2022-09-29T11:31:18.816Z,18.72
2022-09-29T11:32:18.787Z,18.59
2022-09-29T11:33:18.785Z,18.59
2022-09-29T11:34:18.904Z,18.12
2022-09-29T11:35:18.897Z,17.55
2022-09-29T11:36:18.764Z,17.08
2022-09-29T11:37:18.829Z,16.73
2022-09-29T11:38:18.871Z,16.52
2022-09-29T11:39:19.397Z,16.33
2022-09-29T11:40:18.750Z,16.12
2022-09-29T11:41:18.838Z,15.93
2022-09-29T11:42:18.822Z,16.00
2022-09-29T11:43:18.987Z,16.30
2022-09-29T11:44:18.688Z,16.35
2022-09-29T11:46:18.720Z,16.27
2022-09-29T11:47:18.739Z,16.53
2022-09-29T11:48:18.669Z,16.50
2022-09-29T11:49:18.794Z,16.34
2022-09-29T11:50:18.706Z,16.20
2022-09-29T11:51:18.863Z,15.99
2022-09-29T11:52:18.627Z,15.82
2022-09-29T11:53:18.804Z,15.72
2022-09-29T11:54:18.627Z,15.57
2022-09-29T11:55:18.831Z,15.41
2022-09-29T11:56:18.565Z,15.28
2022-09-29T11:57:19.649Z,15.15
2022-09-29T11:58:18.535Z,14.93
2022-09-29T11:59:18.668Z,14.75
2022-09-29T12:00:18.574Z,14.64
2022-09-29T12:01:18.597Z,14.94
2022-09-29T12:02:18.615Z,15.33
2022-09-29T12:03:18.606Z,15.78
2022-09-29T12:04:18.601Z,16.31
2022-09-29T12:05:18.765Z,16.75
2022-09-29T12:06:18.494Z,17.18
2022-09-29T12:07:18.657Z,17.54
2022-09-29T12:08:18.693Z,17.89
2022-09-29T12:09:18.588Z,18.10
2022-09-29T12:10:22.301Z,18.36
2022-09-29T12:11:44.372Z,18.58
2022-09-29T12:12:23.463Z,18.70
2022-09-29T12:13:18.412Z,18.79
2022-09-29T12:14:18.453Z,18.80
2022-09-29T12:15:18.478Z,18.94
2022-09-29T12:16:18.497Z,19.06
2022-09-29T12:17:18.930Z,18.83
2022-09-29T12:18:18.720Z,18.43
2022-09-29T12:19:18.464Z,17.89
2022-09-29T12:20:18.425Z,17.44
2022-09-29T12:21:18.621Z,17.10
2022-09-29T12:22:18.526Z,16.78
2022-09-29T12:23:18.415Z,16.48
2022-09-29T12:24:18.680Z,16.20
2022-09-29T12:25:18.842Z,15.94
2022-09-29T12:26:18.656Z,15.74
2022-09-29T12:27:18.564Z,15.57
2022-09-29T12:28:18.240Z,15.41
2022-09-29T12:29:18.629Z,15.28
2022-09-29T12:30:18.238Z,15.19
2022-09-29T12:31:18.310Z,15.08
2022-09-29T12:32:19.369Z,15.01
2022-09-29T12:33:18.337Z,15.02
2022-09-29T12:34:18.504Z,15.30
2022-09-29T12:35:18.460Z,15.72
2022-09-29T12:36:18.196Z,16.09
2022-09-29T12:37:18.140Z,16.53
2022-09-29T12:38:18.150Z,16.93
2022-09-29T12:39:18.154Z,17.30
2022-09-29T12:40:18.699Z,17.69
2022-09-29T12:41:18.401Z,18.09
2022-09-29T12:42:18.229Z,18.40
2022-09-29T12:43:18.122Z,18.58
2022-09-29T12:44:18.344Z,18.76
2022-09-29T12:45:18.121Z,19.01
2022-09-29T12:46:18.106Z,19.21
2022-09-29T12:47:18.291Z,19.25
2022-09-29T12:48:18.218Z,19.02
2022-09-29T12:49:18.257Z,18.70
2022-09-29T12:50:18.360Z,18.29
2022-09-29T12:51:18.137Z,17.94
2022-09-29T12:52:18.194Z,17.70
2022-09-29T12:53:18.081Z,17.48
2022-09-29T12:54:18.192Z,17.29
2022-09-29T12:55:18.297Z,17.11
2022-09-29T12:56:18.006Z,16.96
2022-09-29T12:57:17.964Z,16.73
2022-09-29T12:58:17.972Z,16.53
2022-09-29T12:59:18.180Z,16.33
2022-09-29T13:00:18.097Z,16.15
2022-09-29T13:01:17.980Z,16.00
2022-09-29T13:02:18.052Z,15.86
2022-09-29T13:03:18.142Z,15.82
2022-09-29T13:04:17.983Z,15.85
2022-09-29T13:05:18.031Z,16.07
2022-09-29T13:06:18.140Z,16.31
2022-09-29T13:07:18.072Z,16.55
2022-09-29T13:08:19.401Z,16.70
2022-09-29T13:09:18.136Z,16.75
2022-09-29T13:10:17.867Z,16.81